Etusivu
METAR-TAF:

METAR-TAF

Lentoasemat :

Amsterdam, Alankomaat

Schipholin kansainvälinen lentoasema

Leveyspiiri: 52-18N, Pituuspiiri: 004-46E, korkeus merenpinnasta: -4 m

Tämänhetkinen sää

Tämä raportti tehtiin 23 minuuttia sitten, kello 06.55 UTC
Tuuli 9 kn idästä
Lämpötila 18°C
Kosteus 73%
Ilmanpaine 1023 hPa
Näkyvyys 10 km tai enemmän
ei pilviä alle 1500 m:ssä eikä cumulonimbus-pilviä

METAR: EHAM 260655Z 09009KT CAVOK 18/13 Q1023 NOSIG

Aika: 09:18 (07:18 UTC)

Sääennuste

Tämä raportti tehtiin 3 tuntia ja 0 minuuttia sitten, kello 04.18 UTC
Ennuste voimassa 26. päivästä klo 06 UTC - 27. päivään klo 12 UTC
Tuuli 10 kn idästä
Näkyvyys 10 km tai enemmän
ei pilviä alle 1500 m:ssä eikä cumulonimbus-pilviä
Tulossa
27. päivästä klo 07 UTC - 27. päivään klo 10 UTC
Tuuli 13 kn kaakosta

TAF: EHAM 260418Z 2606/2712 09010KT CAVOK BECMG 2707/2710 14013KT

Säähavainnot ja -ennusteet yli 4000 lentoasemalta (METAR- ja TAF-raportit).

Käytössä olevat sääasemat on merkitty karttaan keltaisilla ja punaisilla pisteillä.

Aseta hiiri pisteen päälle nähdäksesi sääaseman nimen.

Klikkaa sitten nähdäksesi säähavainnot ja -ennusteet.

Kartan vaihtaminen: klikkaa mustalla rastilla varustettuja vihreitä pisteitä, niin voit zoomata sisään; viivalla varustettua vihreää pistettä, niin voit zoomata ulos tai vihreitä nuolia, niin pääset viereisille kartoille.


METAR-TAF: